sensor_id;sensor_type;location;lat;lon;timestamp;temperature;humidity
72576;DHT22;60613;48.658;2.328;2022-09-24T00:01:25;20.40;43.60
72576;DHT22;60613;48.658;2.328;2022-09-24T00:03:53;20.40;43.50
72576;DHT22;60613;48.658;2.328;2022-09-24T00:06:20;20.40;43.60
72576;DHT22;60613;48.658;2.328;2022-09-24T00:08:47;20.40;43.60
72576;DHT22;60613;48.658;2.328;2022-09-24T00:11:14;20.30;43.60
72576;DHT22;60613;48.658;2.328;2022-09-24T00:13:40;20.40;43.60
72576;DHT22;60613;48.658;2.328;2022-09-24T00:16:10;20.40;43.60
72576;DHT22;60613;48.658;2.328;2022-09-24T00:18:36;20.40;43.60
72576;DHT22;60613;48.658;2.328;2022-09-24T00:23:42;20.40;43.70
72576;DHT22;60613;48.658;2.328;2022-09-24T00:26:10;20.40;43.70
72576;DHT22;60613;48.658;2.328;2022-09-24T00:28:55;20.40;43.70
72576;DHT22;60613;48.658;2.328;2022-09-24T00:31:20;20.40;43.70
72576;DHT22;60613;48.658;2.328;2022-09-24T00:33:46;20.30;43.80
72576;DHT22;60613;48.658;2.328;2022-09-24T00:36:17;20.30;43.80
72576;DHT22;60613;48.658;2.328;2022-09-24T00:38:43;20.30;43.80
72576;DHT22;60613;48.658;2.328;2022-09-24T00:41:09;20.30;43.80
72576;DHT22;60613;48.658;2.328;2022-09-24T00:43:36;20.30;43.80
72576;DHT22;60613;48.658;2.328;2022-09-24T00:49:16;20.30;43.80
72576;DHT22;60613;48.658;2.328;2022-09-24T00:51:43;20.30;43.80
72576;DHT22;60613;48.658;2.328;2022-09-24T00:54:22;20.30;43.90
72576;DHT22;60613;48.658;2.328;2022-09-24T00:56:49;20.30;43.90
72576;DHT22;60613;48.658;2.328;2022-09-24T00:59:18;20.40;43.70
72576;DHT22;60613;48.658;2.328;2022-09-24T01:01:46;20.30;43.70
72576;DHT22;60613;48.658;2.328;2022-09-24T01:04:13;20.30;43.80
72576;DHT22;60613;48.658;2.328;2022-09-24T01:06:39;20.30;43.90
72576;DHT22;60613;48.658;2.328;2022-09-24T01:09:05;20.30;43.80
72576;DHT22;60613;48.658;2.328;2022-09-24T01:30:08;20.30;43.70
72576;DHT22;60613;48.658;2.328;2022-09-24T01:32:49;20.40;43.80
72576;DHT22;60613;48.658;2.328;2022-09-24T01:35:20;20.30;43.80
72576;DHT22;60613;48.658;2.328;2022-09-24T01:40:33;20.30;43.70
72576;DHT22;60613;48.658;2.328;2022-09-24T01:43:01;20.40;43.90
72576;DHT22;60613;48.658;2.328;2022-09-24T01:45:28;20.30;43.90
72576;DHT22;60613;48.658;2.328;2022-09-24T01:47:58;20.30;43.90
72576;DHT22;60613;48.658;2.328;2022-09-24T01:50:25;20.30;43.90
72576;DHT22;60613;48.658;2.328;2022-09-24T01:55:23;20.30;43.90
72576;DHT22;60613;48.658;2.328;2022-09-24T01:58:06;20.30;43.90
72576;DHT22;60613;48.658;2.328;2022-09-24T02:00:40;20.30;44.00
72576;DHT22;60613;48.658;2.328;2022-09-24T02:03:38;20.30;43.90
72576;DHT22;60613;48.658;2.328;2022-09-24T02:06:34;20.30;45.20
72576;DHT22;60613;48.658;2.328;2022-09-24T02:08:58;20.30;43.90
72576;DHT22;60613;48.658;2.328;2022-09-24T02:11:25;20.30;43.90
72576;DHT22;60613;48.658;2.328;2022-09-24T02:14:11;20.30;43.90
72576;DHT22;60613;48.658;2.328;2022-09-24T02:16:43;20.30;43.90
72576;DHT22;60613;48.658;2.328;2022-09-24T02:19:14;20.30;43.80
72576;DHT22;60613;48.658;2.328;2022-09-24T02:21:43;20.30;43.90
72576;DHT22;60613;48.658;2.328;2022-09-24T02:24:14;20.30;43.90
72576;DHT22;60613;48.658;2.328;2022-09-24T02:26:41;20.30;43.90
72576;DHT22;60613;48.658;2.328;2022-09-24T02:29:08;20.40;43.90
72576;DHT22;60613;48.658;2.328;2022-09-24T02:31:37;20.40;44.00
72576;DHT22;60613;48.658;2.328;2022-09-24T02:34:07;20.30;44.00
72576;DHT22;60613;48.658;2.328;2022-09-24T02:36:49;20.30;44.10
72576;DHT22;60613;48.658;2.328;2022-09-24T02:39:15;20.30;44.00
72576;DHT22;60613;48.658;2.328;2022-09-24T02:41:45;20.30;45.20
72576;DHT22;60613;48.658;2.328;2022-09-24T02:44:13;20.30;44.00
72576;DHT22;60613;48.658;2.328;2022-09-24T02:46:38;20.30;44.10
72576;DHT22;60613;48.658;2.328;2022-09-24T02:49:06;20.30;44.10
72576;DHT22;60613;48.658;2.328;2022-09-24T02:51:31;20.30;44.10
72576;DHT22;60613;48.658;2.328;2022-09-24T02:53:57;20.30;44.00
72576;DHT22;60613;48.658;2.328;2022-09-24T02:56:23;20.30;44.00
72576;DHT22;60613;48.658;2.328;2022-09-24T02:58:48;20.30;44.10
72576;DHT22;60613;48.658;2.328;2022-09-24T03:01:14;20.30;44.10
72576;DHT22;60613;48.658;2.328;2022-09-24T03:03:39;20.30;44.10
72576;DHT22;60613;48.658;2.328;2022-09-24T03:06:05;20.30;44.10
72576;DHT22;60613;48.658;2.328;2022-09-24T03:08:31;20.30;44.10
72576;DHT22;60613;48.658;2.328;2022-09-24T03:10:57;20.30;44.10
72576;DHT22;60613;48.658;2.328;2022-09-24T03:13:23;20.30;44.10
72576;DHT22;60613;48.658;2.328;2022-09-24T03:15:49;20.30;44.10
72576;DHT22;60613;48.658;2.328;2022-09-24T03:18:15;20.30;44.20
72576;DHT22;60613;48.658;2.328;2022-09-24T03:20:40;20.30;44.10
72576;DHT22;60613;48.658;2.328;2022-09-24T03:23:06;20.30;44.30
72576;DHT22;60613;48.658;2.328;2022-09-24T03:25:32;20.30;44.30
72576;DHT22;60613;48.658;2.328;2022-09-24T03:27:57;20.30;44.30
72576;DHT22;60613;48.658;2.328;2022-09-24T03:30:23;20.30;44.30
72576;DHT22;60613;48.658;2.328;2022-09-24T03:33:07;20.30;44.30
72576;DHT22;60613;48.658;2.328;2022-09-24T03:35:33;20.30;44.30
72576;DHT22;60613;48.658;2.328;2022-09-24T03:37:58;20.30;44.20
72576;DHT22;60613;48.658;2.328;2022-09-24T03:40:24;20.30;44.30
72576;DHT22;60613;48.658;2.328;2022-09-24T03:42:50;20.30;44.30
72576;DHT22;60613;48.658;2.328;2022-09-24T03:45:15;20.30;44.20
72576;DHT22;60613;48.658;2.328;2022-09-24T03:47:41;20.30;44.30
72576;DHT22;60613;48.658;2.328;2022-09-24T03:50:08;20.30;44.20
72576;DHT22;60613;48.658;2.328;2022-09-24T03:52:40;20.30;44.20
72576;DHT22;60613;48.658;2.328;2022-09-24T03:55:06;20.30;44.20
72576;DHT22;60613;48.658;2.328;2022-09-24T03:57:32;20.30;44.20
72576;DHT22;60613;48.658;2.328;2022-09-24T03:59:58;20.30;44.20
72576;DHT22;60613;48.658;2.328;2022-09-24T04:02:24;20.30;44.20
72576;DHT22;60613;48.658;2.328;2022-09-24T04:04:49;20.30;44.30
72576;DHT22;60613;48.658;2.328;2022-09-24T04:07:16;20.30;44.30
72576;DHT22;60613;48.658;2.328;2022-09-24T04:09:42;20.30;44.30
72576;DHT22;60613;48.658;2.328;2022-09-24T04:12:07;20.30;44.30
72576;DHT22;60613;48.658;2.328;2022-09-24T04:14:33;20.30;44.30
72576;DHT22;60613;48.658;2.328;2022-09-24T04:16:59;20.30;44.30
72576;DHT22;60613;48.658;2.328;2022-09-24T04:19:24;20.30;44.30
72576;DHT22;60613;48.658;2.328;2022-09-24T04:21:51;20.30;44.30
72576;DHT22;60613;48.658;2.328;2022-09-24T04:24:17;20.30;44.40
72576;DHT22;60613;48.658;2.328;2022-09-24T04:26:43;20.30;44.40
72576;DHT22;60613;48.658;2.328;2022-09-24T04:29:08;20.30;44.50
72576;DHT22;60613;48.658;2.328;2022-09-24T04:31:34;20.30;44.50
72576;DHT22;60613;48.658;2.328;2022-09-24T04:34:00;20.30;44.50
72576;DHT22;60613;48.658;2.328;2022-09-24T04:36:26;20.30;45.60
72576;DHT22;60613;48.658;2.328;2022-09-24T04:38:52;20.30;44.40
72576;DHT22;60613;48.658;2.328;2022-09-24T04:41:17;20.30;44.40
72576;DHT22;60613;48.658;2.328;2022-09-24T04:43:43;20.30;44.50
72576;DHT22;60613;48.658;2.328;2022-09-24T04:46:11;20.30;44.50
72576;DHT22;60613;48.658;2.328;2022-09-24T04:48:37;20.30;44.60
72576;DHT22;60613;48.658;2.328;2022-09-24T04:51:04;20.30;44.60
72576;DHT22;60613;48.658;2.328;2022-09-24T04:53:34;20.30;44.60
72576;DHT22;60613;48.658;2.328;2022-09-24T04:56:01;20.30;44.60
72576;DHT22;60613;48.658;2.328;2022-09-24T04:58:28;20.30;44.50
72576;DHT22;60613;48.658;2.328;2022-09-24T05:00:54;20.30;44.60
72576;DHT22;60613;48.658;2.328;2022-09-24T05:03:19;20.30;44.70
72576;DHT22;60613;48.658;2.328;2022-09-24T05:05:45;20.30;44.60
72576;DHT22;60613;48.658;2.328;2022-09-24T05:08:11;20.30;44.60
72576;DHT22;60613;48.658;2.328;2022-09-24T05:10:37;20.30;44.50
72576;DHT22;60613;48.658;2.328;2022-09-24T05:13:03;20.30;44.70
72576;DHT22;60613;48.658;2.328;2022-09-24T05:15:29;20.30;44.60
72576;DHT22;60613;48.658;2.328;2022-09-24T05:17:56;20.30;44.50
72576;DHT22;60613;48.658;2.328;2022-09-24T05:20:21;20.30;44.50
72576;DHT22;60613;48.658;2.328;2022-09-24T05:22:48;20.30;44.50
72576;DHT22;60613;48.658;2.328;2022-09-24T05:25:14;20.30;45.70
72576;DHT22;60613;48.658;2.328;2022-09-24T05:27:48;20.30;44.60
72576;DHT22;60613;48.658;2.328;2022-09-24T05:30:14;20.30;44.60
72576;DHT22;60613;48.658;2.328;2022-09-24T05:32:41;20.30;44.60
72576;DHT22;60613;48.658;2.328;2022-09-24T05:35:08;20.30;44.60
72576;DHT22;60613;48.658;2.328;2022-09-24T05:37:37;20.30;44.50
72576;DHT22;60613;48.658;2.328;2022-09-24T05:40:04;20.30;44.50
72576;DHT22;60613;48.658;2.328;2022-09-24T05:42:50;20.30;44.60
72576;DHT22;60613;48.658;2.328;2022-09-24T05:45:16;20.30;45.80
72576;DHT22;60613;48.658;2.328;2022-09-24T05:47:44;20.30;44.70
72576;DHT22;60613;48.658;2.328;2022-09-24T05:50:10;20.30;44.60
72576;DHT22;60613;48.658;2.328;2022-09-24T05:52:38;20.30;44.70
72576;DHT22;60613;48.658;2.328;2022-09-24T05:55:04;20.30;44.60
72576;DHT22;60613;48.658;2.328;2022-09-24T05:57:29;20.30;44.70
72576;DHT22;60613;48.658;2.328;2022-09-24T05:59:55;20.30;44.70
72576;DHT22;60613;48.658;2.328;2022-09-24T06:02:20;20.30;44.70
72576;DHT22;60613;48.658;2.328;2022-09-24T06:04:46;20.30;44.60
72576;DHT22;60613;48.658;2.328;2022-09-24T06:07:12;20.30;44.60
72576;DHT22;60613;48.658;2.328;2022-09-24T06:09:37;20.30;44.70
72576;DHT22;60613;48.658;2.328;2022-09-24T06:12:03;20.30;44.70
72576;DHT22;60613;48.658;2.328;2022-09-24T06:14:31;20.30;44.70
72576;DHT22;60613;48.658;2.328;2022-09-24T06:16:57;20.30;44.70
72576;DHT22;60613;48.658;2.328;2022-09-24T06:19:23;20.30;44.70
72576;DHT22;60613;48.658;2.328;2022-09-24T06:21:48;20.30;44.70
72576;DHT22;60613;48.658;2.328;2022-09-24T06:24:14;20.30;44.70
72576;DHT22;60613;48.658;2.328;2022-09-24T06:26:40;20.30;44.70
72576;DHT22;60613;48.658;2.328;2022-09-24T06:29:06;20.30;44.70
72576;DHT22;60613;48.658;2.328;2022-09-24T06:31:32;20.30;44.70
72576;DHT22;60613;48.658;2.328;2022-09-24T06:33:58;20.30;44.70
72576;DHT22;60613;48.658;2.328;2022-09-24T06:36:25;20.30;44.70
72576;DHT22;60613;48.658;2.328;2022-09-24T06:38:51;20.30;44.70
72576;DHT22;60613;48.658;2.328;2022-09-24T06:41:17;20.30;44.70
72576;DHT22;60613;48.658;2.328;2022-09-24T06:43:42;20.30;44.70
72576;DHT22;60613;48.658;2.328;2022-09-24T06:46:08;20.30;44.70
72576;DHT22;60613;48.658;2.328;2022-09-24T06:48:34;20.30;44.70
72576;DHT22;60613;48.658;2.328;2022-09-24T06:51:03;20.30;44.70
72576;DHT22;60613;48.658;2.328;2022-09-24T06:53:29;20.30;44.70
72576;DHT22;60613;48.658;2.328;2022-09-24T06:55:56;20.30;44.70
72576;DHT22;60613;48.658;2.328;2022-09-24T06:58:24;20.30;44.70
72576;DHT22;60613;48.658;2.328;2022-09-24T07:00:55;20.30;44.70
72576;DHT22;60613;48.658;2.328;2022-09-24T07:03:24;20.30;44.70
72576;DHT22;60613;48.658;2.328;2022-09-24T07:05:50;20.20;44.70
72576;DHT22;60613;48.658;2.328;2022-09-24T07:08:16;20.30;44.70
72576;DHT22;60613;48.658;2.328;2022-09-24T07:10:43;20.30;44.70
72576;DHT22;60613;48.658;2.328;2022-09-24T07:13:10;20.30;44.70
72576;DHT22;60613;48.658;2.328;2022-09-24T07:18:11;20.30;44.70
72576;DHT22;60613;48.658;2.328;2022-09-24T07:20:38;20.30;44.70
72576;DHT22;60613;48.658;2.328;2022-09-24T07:23:04;20.30;44.70
72576;DHT22;60613;48.658;2.328;2022-09-24T07:25:31;20.20;44.70
72576;DHT22;60613;48.658;2.328;2022-09-24T07:28:06;20.30;44.70
72576;DHT22;60613;48.658;2.328;2022-09-24T07:30:33;20.30;44.70
72576;DHT22;60613;48.658;2.328;2022-09-24T07:32:59;20.30;44.70
72576;DHT22;60613;48.658;2.328;2022-09-24T07:35:26;20.30;44.80
72576;DHT22;60613;48.658;2.328;2022-09-24T07:37:59;20.30;44.80
72576;DHT22;60613;48.658;2.328;2022-09-24T07:40:25;20.30;44.80
72576;DHT22;60613;48.658;2.328;2022-09-24T07:42:51;20.20;44.70
72576;DHT22;60613;48.658;2.328;2022-09-24T07:45:18;20.30;44.80
72576;DHT22;60613;48.658;2.328;2022-09-24T07:47:44;20.30;44.90
72576;DHT22;60613;48.658;2.328;2022-09-24T07:50:10;20.30;44.80
72576;DHT22;60613;48.658;2.328;2022-09-24T07:52:37;20.30;44.80
72576;DHT22;60613;48.658;2.328;2022-09-24T07:55:03;20.30;44.80
72576;DHT22;60613;48.658;2.328;2022-09-24T07:57:28;20.20;44.80
72576;DHT22;60613;48.658;2.328;2022-09-24T07:59:54;20.20;44.80
72576;DHT22;60613;48.658;2.328;2022-09-24T08:02:20;20.30;44.80
72576;DHT22;60613;48.658;2.328;2022-09-24T08:04:45;20.30;44.90
72576;DHT22;60613;48.658;2.328;2022-09-24T08:07:12;20.20;44.80
72576;DHT22;60613;48.658;2.328;2022-09-24T08:09:38;20.30;44.90
72576;DHT22;60613;48.658;2.328;2022-09-24T08:12:04;20.30;44.90
72576;DHT22;60613;48.658;2.328;2022-09-24T08:14:30;20.30;45.00
72576;DHT22;60613;48.658;2.328;2022-09-24T08:16:56;20.30;45.00
72576;DHT22;60613;48.658;2.328;2022-09-24T08:19:22;20.30;45.00
72576;DHT22;60613;48.658;2.328;2022-09-24T08:21:47;20.20;45.00
72576;DHT22;60613;48.658;2.328;2022-09-24T08:24:14;20.30;45.00
72576;DHT22;60613;48.658;2.328;2022-09-24T08:26:40;20.30;45.00
72576;DHT22;60613;48.658;2.328;2022-09-24T08:29:06;20.20;45.00
72576;DHT22;60613;48.658;2.328;2022-09-24T08:31:32;20.30;45.00
72576;DHT22;60613;48.658;2.328;2022-09-24T08:33:59;20.20;45.00
72576;DHT22;60613;48.658;2.328;2022-09-24T08:36:25;20.20;45.00
72576;DHT22;60613;48.658;2.328;2022-09-24T08:38:53;20.20;45.00
72576;DHT22;60613;48.658;2.328;2022-09-24T08:46:43;20.20;45.10
72576;DHT22;60613;48.658;2.328;2022-09-24T08:49:37;20.20;45.10
72576;DHT22;60613;48.658;2.328;2022-09-24T08:52:14;20.20;45.10
72576;DHT22;60613;48.658;2.328;2022-09-24T08:54:42;20.20;45.10
72576;DHT22;60613;48.658;2.328;2022-09-24T08:57:15;20.20;45.10
72576;DHT22;60613;48.658;2.328;2022-09-24T08:59:46;20.20;45.20
72576;DHT22;60613;48.658;2.328;2022-09-24T09:07:30;20.20;45.10
72576;DHT22;60613;48.658;2.328;2022-09-24T09:10:02;20.20;45.20
72576;DHT22;60613;48.658;2.328;2022-09-24T09:12:41;20.20;45.10
72576;DHT22;60613;48.658;2.328;2022-09-24T09:15:18;20.20;45.20
72576;DHT22;60613;48.658;2.328;2022-09-24T09:17:53;20.20;45.20
72576;DHT22;60613;48.658;2.328;2022-09-24T09:23:13;20.20;45.20
72576;DHT22;60613;48.658;2.328;2022-09-24T09:25:45;20.20;45.30
72576;DHT22;60613;48.658;2.328;2022-09-24T09:28:15;20.20;45.30
72576;DHT22;60613;48.658;2.328;2022-09-24T09:42:29;20.20;45.20
72576;DHT22;60613;48.658;2.328;2022-09-24T09:44:59;20.20;45.20
72576;DHT22;60613;48.658;2.328;2022-09-24T09:47:39;20.20;45.20
72576;DHT22;60613;48.658;2.328;2022-09-24T09:50:26;20.20;45.30
72576;DHT22;60613;48.658;2.328;2022-09-24T09:52:53;20.20;45.30
72576;DHT22;60613;48.658;2.328;2022-09-24T09:55:36;20.20;45.30
72576;DHT22;60613;48.658;2.328;2022-09-24T09:58:16;20.20;45.30
72576;DHT22;60613;48.658;2.328;2022-09-24T10:00:42;20.20;45.30
72576;DHT22;60613;48.658;2.328;2022-09-24T10:03:30;20.20;45.30
72576;DHT22;60613;48.658;2.328;2022-09-24T10:06:01;20.20;45.30
72576;DHT22;60613;48.658;2.328;2022-09-24T10:08:28;20.20;45.40
72576;DHT22;60613;48.658;2.328;2022-09-24T10:10:55;20.20;45.30
72576;DHT22;60613;48.658;2.328;2022-09-24T10:13:22;20.20;45.30
72576;DHT22;60613;48.658;2.328;2022-09-24T10:15:50;20.20;45.30
72576;DHT22;60613;48.658;2.328;2022-09-24T10:18:24;20.20;45.40
72576;DHT22;60613;48.658;2.328;2022-09-24T10:20:53;20.20;45.40
72576;DHT22;60613;48.658;2.328;2022-09-24T10:23:25;20.20;45.40
72576;DHT22;60613;48.658;2.328;2022-09-24T10:25:59;20.20;45.40
72576;DHT22;60613;48.658;2.328;2022-09-24T10:28:27;20.20;45.40
72576;DHT22;60613;48.658;2.328;2022-09-24T10:31:23;20.20;46.50
72576;DHT22;60613;48.658;2.328;2022-09-24T10:33:53;20.20;45.30
72576;DHT22;60613;48.658;2.328;2022-09-24T10:36:26;20.20;45.30
72576;DHT22;60613;48.658;2.328;2022-09-24T10:39:11;20.20;45.40
72576;DHT22;60613;48.658;2.328;2022-09-24T10:41:45;20.20;45.50
72576;DHT22;60613;48.658;2.328;2022-09-24T10:44:11;20.20;46.50
72576;DHT22;60613;48.658;2.328;2022-09-24T10:52:43;20.20;45.50
72576;DHT22;60613;48.658;2.328;2022-09-24T10:55:21;20.20;45.30
72576;DHT22;60613;48.658;2.328;2022-09-24T10:58:20;20.20;45.40
72576;DHT22;60613;48.658;2.328;2022-09-24T11:01:21;20.20;45.40
72576;DHT22;60613;48.658;2.328;2022-09-24T11:09:46;20.10;45.40
72576;DHT22;60613;48.658;2.328;2022-09-24T11:14:54;20.20;46.60
72576;DHT22;60613;48.658;2.328;2022-09-24T11:20:13;20.20;45.50
72576;DHT22;60613;48.658;2.328;2022-09-24T11:33:39;20.20;45.50
72576;DHT22;60613;48.658;2.328;2022-09-24T11:39:20;20.10;45.40
72576;DHT22;60613;48.658;2.328;2022-09-24T11:41:59;20.20;45.50
72576;DHT22;60613;48.658;2.328;2022-09-24T11:53:21;20.20;46.70
72576;DHT22;60613;48.658;2.328;2022-09-24T11:55:53;20.20;45.50
72576;DHT22;60613;48.658;2.328;2022-09-24T11:58:25;20.20;45.50
72576;DHT22;60613;48.658;2.328;2022-09-24T12:01:05;20.20;45.60
72576;DHT22;60613;48.658;2.328;2022-09-24T12:03:54;20.10;45.50
72576;DHT22;60613;48.658;2.328;2022-09-24T12:06:49;20.20;45.50
72576;DHT22;60613;48.658;2.328;2022-09-24T12:09:30;20.20;45.50
72576;DHT22;60613;48.658;2.328;2022-09-24T12:12:06;20.20;45.50
72576;DHT22;60613;48.658;2.328;2022-09-24T12:14:47;20.10;45.50
72576;DHT22;60613;48.658;2.328;2022-09-24T12:17:24;20.20;45.60
72576;DHT22;60613;48.658;2.328;2022-09-24T12:19:56;20.20;45.70
72576;DHT22;60613;48.658;2.328;2022-09-24T12:22:23;20.20;45.50
72576;DHT22;60613;48.658;2.328;2022-09-24T12:24:54;20.20;46.60
72576;DHT22;60613;48.658;2.328;2022-09-24T12:27:33;20.20;45.50
72576;DHT22;60613;48.658;2.328;2022-09-24T12:30:03;20.20;45.60
72576;DHT22;60613;48.658;2.328;2022-09-24T12:38:32;20.20;45.50
72576;DHT22;60613;48.658;2.328;2022-09-24T12:41:08;20.20;45.60
72576;DHT22;60613;48.658;2.328;2022-09-24T12:43:41;20.20;45.60
72576;DHT22;60613;48.658;2.328;2022-09-24T12:48:44;20.10;46.00
72576;DHT22;60613;48.658;2.328;2022-09-24T12:51:11;20.20;45.60
72576;DHT22;60613;48.658;2.328;2022-09-24T12:53:42;20.10;45.70
72576;DHT22;60613;48.658;2.328;2022-09-24T12:56:26;20.20;45.60
72576;DHT22;60613;48.658;2.328;2022-09-24T12:58:54;20.20;45.70
72576;DHT22;60613;48.658;2.328;2022-09-24T13:04:04;20.20;45.70
72576;DHT22;60613;48.658;2.328;2022-09-24T13:06:34;20.20;45.70
72576;DHT22;60613;48.658;2.328;2022-09-24T13:09:01;20.20;45.70
72576;DHT22;60613;48.658;2.328;2022-09-24T13:11:33;20.20;45.70
72576;DHT22;60613;48.658;2.328;2022-09-24T13:16:43;20.20;45.70
72576;DHT22;60613;48.658;2.328;2022-09-24T13:19:36;20.20;45.70
72576;DHT22;60613;48.658;2.328;2022-09-24T13:22:15;20.20;45.60
72576;DHT22;60613;48.658;2.328;2022-09-24T13:24:47;20.20;45.70
72576;DHT22;60613;48.658;2.328;2022-09-24T13:27:33;20.20;45.70
72576;DHT22;60613;48.658;2.328;2022-09-24T13:32:41;20.20;45.60
72576;DHT22;60613;48.658;2.328;2022-09-24T13:35:15;20.20;45.70
72576;DHT22;60613;48.658;2.328;2022-09-24T13:38:11;20.30;45.70
72576;DHT22;60613;48.658;2.328;2022-09-24T13:40:36;20.30;45.70
72576;DHT22;60613;48.658;2.328;2022-09-24T13:43:18;20.30;45.70
72576;DHT22;60613;48.658;2.328;2022-09-24T13:45:47;20.30;45.70
72576;DHT22;60613;48.658;2.328;2022-09-24T13:50:50;20.30;45.70
72576;DHT22;60613;48.658;2.328;2022-09-24T13:53:18;20.30;45.60
72576;DHT22;60613;48.658;2.328;2022-09-24T13:55:47;20.30;45.50
72576;DHT22;60613;48.658;2.328;2022-09-24T13:58:30;20.20;45.60
72576;DHT22;60613;48.658;2.328;2022-09-24T14:01:04;20.20;45.70
72576;DHT22;60613;48.658;2.328;2022-09-24T14:03:35;20.30;45.80
72576;DHT22;60613;48.658;2.328;2022-09-24T14:06:12;20.30;45.80
72576;DHT22;60613;48.658;2.328;2022-09-24T14:08:45;20.30;45.80
72576;DHT22;60613;48.658;2.328;2022-09-24T14:11:21;20.20;45.80
72576;DHT22;60613;48.658;2.328;2022-09-24T14:13:51;20.20;45.90
72576;DHT22;60613;48.658;2.328;2022-09-24T14:19:01;20.20;45.90
72576;DHT22;60613;48.658;2.328;2022-09-24T14:21:40;20.20;46.10
72576;DHT22;60613;48.658;2.328;2022-09-24T14:24:13;20.20;46.10
72576;DHT22;60613;48.658;2.328;2022-09-24T14:26:46;20.20;46.00
72576;DHT22;60613;48.658;2.328;2022-09-24T14:29:28;20.20;46.00
72576;DHT22;60613;48.658;2.328;2022-09-24T14:31:59;20.20;46.00
72576;DHT22;60613;48.658;2.328;2022-09-24T14:34:34;20.30;46.10
72576;DHT22;60613;48.658;2.328;2022-09-24T14:37:07;20.30;46.00
72576;DHT22;60613;48.658;2.328;2022-09-24T14:39:39;20.30;46.00
72576;DHT22;60613;48.658;2.328;2022-09-24T14:42:22;20.30;46.00
72576;DHT22;60613;48.658;2.328;2022-09-24T14:44:49;20.30;45.90
72576;DHT22;60613;48.658;2.328;2022-09-24T14:47:25;20.30;45.90
72576;DHT22;60613;48.658;2.328;2022-09-24T14:49:51;20.30;45.90
72576;DHT22;60613;48.658;2.328;2022-09-24T14:55:12;20.30;45.90
72576;DHT22;60613;48.658;2.328;2022-09-24T14:57:42;20.30;46.00
72576;DHT22;60613;48.658;2.328;2022-09-24T15:00:21;20.30;46.00
72576;DHT22;60613;48.658;2.328;2022-09-24T15:02:51;20.30;45.90
72576;DHT22;60613;48.658;2.328;2022-09-24T15:05:22;20.40;46.00
72576;DHT22;60613;48.658;2.328;2022-09-24T15:07:48;20.40;45.90
72576;DHT22;60613;48.658;2.328;2022-09-24T15:10:18;20.40;45.90
72576;DHT22;60613;48.658;2.328;2022-09-24T15:12:47;20.40;45.90
72576;DHT22;60613;48.658;2.328;2022-09-24T15:17:43;20.40;45.90
72576;DHT22;60613;48.658;2.328;2022-09-24T15:20:10;20.40;45.80
72576;DHT22;60613;48.658;2.328;2022-09-24T15:22:36;20.40;45.90
72576;DHT22;60613;48.658;2.328;2022-09-24T15:25:03;20.40;45.80
72576;DHT22;60613;48.658;2.328;2022-09-24T15:27:37;20.40;45.80
72576;DHT22;60613;48.658;2.328;2022-09-24T15:30:05;20.40;45.80
72576;DHT22;60613;48.658;2.328;2022-09-24T15:32:32;20.40;45.80
72576;DHT22;60613;48.658;2.328;2022-09-24T15:35:03;20.40;45.90
72576;DHT22;60613;48.658;2.328;2022-09-24T15:37:33;20.40;45.80
72576;DHT22;60613;48.658;2.328;2022-09-24T15:40:06;20.40;45.80
72576;DHT22;60613;48.658;2.328;2022-09-24T15:42:33;20.40;45.80
72576;DHT22;60613;48.658;2.328;2022-09-24T15:44:59;20.40;45.80
72576;DHT22;60613;48.658;2.328;2022-09-24T15:47:24;20.40;45.80
72576;DHT22;60613;48.658;2.328;2022-09-24T15:49:50;20.40;45.80
72576;DHT22;60613;48.658;2.328;2022-09-24T15:52:26;20.40;45.70
72576;DHT22;60613;48.658;2.328;2022-09-24T15:54:54;20.40;45.70
72576;DHT22;60613;48.658;2.328;2022-09-24T15:57:20;20.40;45.80
72576;DHT22;60613;48.658;2.328;2022-09-24T15:59:52;20.40;45.70
72576;DHT22;60613;48.658;2.328;2022-09-24T16:02:28;20.40;45.80
72576;DHT22;60613;48.658;2.328;2022-09-24T16:04:54;20.50;47.00
72576;DHT22;60613;48.658;2.328;2022-09-24T16:07:20;20.50;46.30
72576;DHT22;60613;48.658;2.328;2022-09-24T16:09:45;20.40;45.80
72576;DHT22;60613;48.658;2.328;2022-09-24T16:12:14;20.40;45.70
72576;DHT22;60613;48.658;2.328;2022-09-24T16:14:40;20.50;45.80
72576;DHT22;60613;48.658;2.328;2022-09-24T16:17:06;20.50;45.90
72576;DHT22;60613;48.658;2.328;2022-09-24T16:19:32;20.50;45.80
72576;DHT22;60613;48.658;2.328;2022-09-24T16:21:57;20.40;45.90
72576;DHT22;60613;48.658;2.328;2022-09-24T16:24:24;20.40;45.90
72576;DHT22;60613;48.658;2.328;2022-09-24T16:26:50;20.50;45.90
72576;DHT22;60613;48.658;2.328;2022-09-24T16:29:16;20.50;45.90
72576;DHT22;60613;48.658;2.328;2022-09-24T16:31:43;20.50;45.90
72576;DHT22;60613;48.658;2.328;2022-09-24T16:34:10;20.50;46.00
72576;DHT22;60613;48.658;2.328;2022-09-24T16:36:35;20.50;45.90
72576;DHT22;60613;48.658;2.328;2022-09-24T16:39:01;20.50;45.90
72576;DHT22;60613;48.658;2.328;2022-09-24T16:41:27;20.50;46.10
72576;DHT22;60613;48.658;2.328;2022-09-24T16:43:59;20.50;46.00
72576;DHT22;60613;48.658;2.328;2022-09-24T16:46:25;20.50;45.90
72576;DHT22;60613;48.658;2.328;2022-09-24T16:48:50;20.50;45.90
72576;DHT22;60613;48.658;2.328;2022-09-24T16:51:16;20.50;45.90
72576;DHT22;60613;48.658;2.328;2022-09-24T16:53:42;20.50;45.90
72576;DHT22;60613;48.658;2.328;2022-09-24T16:56:13;20.50;45.90
72576;DHT22;60613;48.658;2.328;2022-09-24T16:58:43;20.50;45.90
72576;DHT22;60613;48.658;2.328;2022-09-24T17:01:12;20.50;46.00
72576;DHT22;60613;48.658;2.328;2022-09-24T17:03:39;20.50;46.00
72576;DHT22;60613;48.658;2.328;2022-09-24T17:06:05;20.50;46.00
72576;DHT22;60613;48.658;2.328;2022-09-24T17:08:33;20.50;46.00
72576;DHT22;60613;48.658;2.328;2022-09-24T17:11:18;20.50;46.00
72576;DHT22;60613;48.658;2.328;2022-09-24T17:13:44;20.50;46.00
72576;DHT22;60613;48.658;2.328;2022-09-24T17:16:12;20.50;46.10
72576;DHT22;60613;48.658;2.328;2022-09-24T17:18:38;20.50;46.10
72576;DHT22;60613;48.658;2.328;2022-09-24T17:21:10;20.50;46.10
72576;DHT22;60613;48.658;2.328;2022-09-24T17:23:36;20.50;46.10
72576;DHT22;60613;48.658;2.328;2022-09-24T17:26:10;20.50;46.10
72576;DHT22;60613;48.658;2.328;2022-09-24T17:28:38;20.50;46.10
72576;DHT22;60613;48.658;2.328;2022-09-24T17:31:05;20.50;46.20
72576;DHT22;60613;48.658;2.328;2022-09-24T17:33:32;20.50;46.10
72576;DHT22;60613;48.658;2.328;2022-09-24T17:35:59;20.50;46.10
72576;DHT22;60613;48.658;2.328;2022-09-24T17:38:26;20.50;46.20
72576;DHT22;60613;48.658;2.328;2022-09-24T17:40:54;20.50;47.30
72576;DHT22;60613;48.658;2.328;2022-09-24T17:43:20;20.50;46.20
72576;DHT22;60613;48.658;2.328;2022-09-24T17:46:19;20.50;46.20
72576;DHT22;60613;48.658;2.328;2022-09-24T17:48:53;20.40;46.30
72576;DHT22;60613;48.658;2.328;2022-09-24T17:51:27;20.40;47.30